Historique des mesures à Cassis (13260), France
Quotidien Résumé Janvier 7, 2017 Unités:  US    Métrique   Métrique/US
« Précédent (Jour)
Suivant (Jour) »
Quotidien Hebdomadaire Mensuel Annuel Période au choix
  Maximum: Minimum: Moyenne:
Température: 32 °F 39.9 °F 43.5 °F
Point de rosée: 32 °F 23 °F 30.2 °F
Humidité: Humidity % 49 % 56 %
Vitesse du vent: WindSpeedKMH mph 0.0 mph 0.5 mph
Rafales: WindSpeedGustKMH mph - -
Vent:- - SSW
Pression: 0 in 30.2 in -
Précipitations: 0 in    
Historical Graphs
 
 
Mesures pour : Janvier 7, 2017
Heure Temperature Point de rosée Pression Vent Vitesse du vent Rafales Humidité Pluie (par heure) Conditions
32 °F 32 °F 0 in Calm     Humidity % 0 in SoftwareType W/m2
00:11 41.5 °F 25.5 °F 30.2 in Calm   3.2 mph 53 % 0 in open2300-1.11 W/m2
01:10 41.4 °F 24.1 °F 30.2 in Calm   5.0 mph 50 % 0 in open2300-1.11 W/m2
02:11 40.8 °F 23 °F 30.2 in Calm     49 % 0 in open2300-1.11 W/m2
03:10 41 °F 23.7 °F 30.2 in Calm     50 % 0 in open2300-1.11 W/m2
04:11 40.8 °F 24.4 °F 30.2 in Calm     52 % 0 in open2300-1.11 W/m2
05:10 41 °F 26.1 °F 30.2 in Calm     55 % 0 in open2300-1.11 W/m2
06:11 41.4 °F 26.8 °F 30.2 in Calm     56 % 0 in open2300-1.11 W/m2
07:10 41.5 °F 27.9 °F 30.3 in Calm   2.1 mph 58 % 0 in open2300-1.11 W/m2
08:11 41.2 °F 27.5 °F 30.3 in Calm   4.7 mph 58 % 0 in open2300-1.11 W/m2
09:10 41.7 °F 29.7 °F 30.3 in Calm     62 % 0 in open2300-1.11 W/m2
10:11 44.1 °F 32.2 °F 30.3 in Calm     63 % 0 in open2300-1.11 W/m2
11:10 46.2 °F 34.7 °F 30.3 in Calm     64 % 0 in open2300-1.11 W/m2
12:11 48.2 °F 36.1 °F 30.3 in Calm     63 % 0 in open2300-1.11 W/m2
13:11 49.8 °F 38.1 °F 30.3 in Calm     64 % 0 in open2300-1.11 W/m2
14:11 50.9 °F 39 °F 30.3 in Calm     64 % 0 in open2300-1.11 W/m2
15:10 51.4 °F 39.2 °F 30.3 in Calm     63 % 0 in open2300-1.11 W/m2
16:11 50.2 °F 36.9 °F 30.2 in NW 2.9 mph 8.2 mph 60 % 0 in open2300-1.11 W/m2
17:10 47.3 °F 33.6 °F 30.2 in North 2.1 mph 2.1 mph 59 % 0 in open2300-1.11 W/m2
18:11 44.4 °F 30 °F 30.2 in WNW 8.2 mph 19.1 mph 57 % 0 in open2300-1.11 W/m2
19:10 43.3 °F 29.8 °F 30.2 in Calm     59 % 0 in open2300-1.11 W/m2
20:11 42.6 °F 29.7 °F 30.2 in Calm     60 % 0 in open2300-1.11 W/m2
21:10 42.4 °F 29.1 °F 30.2 in Calm     59 % 0 in open2300-1.11 W/m2
22:11 41 °F 27 °F 30.2 in Calm   1.4 mph 57 % 0 in open2300-1.11 W/m2
23:10 39.9 °F 26.8 °F 30.2 in Calm     59 % 0 in open2300-1.11 W/m2
Observations météo à CASSIS
WU-History script by Weather Underground - 1 mb